This is the latest recevied weather packets stored in our database for station/object DH0GMA. If no packets are shown the sender has not sent any weather packets the latest 10 day(s).
| Time | Temp. | Humidity | Pressure | Rain* | Wind** | Luminosity | Snow |
|---|---|---|---|---|---|---|---|
| 1777523556 | 3.33° C | 60% | 1025 hPa | 0 mm | - | - | - |
| 1777522956 | 3.33° C | 61% | 1024.8 hPa | 0 mm | - | - | - |
| 1777522356 | 3.33° C | 61% | 1024.9 hPa | 0 mm | - | - | - |
| 1777521757 | 3.33° C | 61% | 1024.8 hPa | 0 mm | - | - | - |
| 1777521157 | 3.33° C | 61% | 1024.8 hPa | 0 mm | - | - | - |
| 1777520557 | 3.89° C | 61% | 1024.8 hPa | 0 mm | - | - | - |
| 1777519957 | 3.89° C | 61% | 1024.7 hPa | 0 mm | - | - | - |
| 1777519357 | 3.89° C | 61% | 1024.5 hPa | 0 mm | - | - | - |
| 1777518756 | 3.89° C | 61% | 1024.7 hPa | 0 mm | - | - | - |
| 1777518156 | 4.44° C | 59% | 1024.8 hPa | 0 mm | - | - | - |
| 1777517556 | 4.44° C | 59% | 1024.6 hPa | 0 mm | - | - | - |
| 1777516956 | 4.44° C | 59% | 1024.6 hPa | 0 mm | - | - | - |
| 1777516356 | 4.44° C | 59% | 1024.3 hPa | 0 mm | - | - | - |
| 1777515756 | 4.44° C | 59% | 1024.6 hPa | 0 mm | - | - | - |
| 1777515155 | 5° C | 59% | 1024.5 hPa | 0 mm | - | - | - |
| 1777514557 | 5° C | 58% | 1024.4 hPa | 0 mm | - | - | - |
| 1777513957 | 5° C | 57% | 1024.5 hPa | 0 mm | - | - | - |
| 1777513357 | 5.56° C | 57% | 1024.4 hPa | 0 mm | - | - | - |
| 1777512157 | 6.11° C | 55% | 1024.2 hPa | 0 mm | - | - | - |
| 1777510957 | 6.11° C | 53% | 1024.1 hPa | 0 mm | - | - | - |
| 1777509156 | 7.22° C | 50% | 1024 hPa | 0 mm | - | - | - |
| 1777507356 | 7.22° C | 49% | 1024 hPa | 0 mm | - | - | - |
| 1777502555 | 8.89° C | 45% | 1023.6 hPa | 0 mm | - | - | - |
| 1777501955 | 9.44° C | 45% | 1023.5 hPa | 0 mm | - | - | - |
| 1777501357 | 9.44° C | 45% | 1023.3 hPa | 0 mm | - | - | - |
* Rain latest hour (hover to see other rain measurements)
** Current wind speed in m/s (hover to see current wind gust speed)